Time;durP1;ratioP1;P1;durP2;ratioP2;P2;SDS_P1;SDS_P2;PMS_P1;PMS_P2;Temp;Humidity;BMP_temperature;BMP_pressure;BME280_temperature;BME280_humidity;BME280_pressure;Samples;Min_cycle;Max_cycle;Signal;HPM_P1;HPM_P2
2022/04/12 00:01:03;;;;;;;3.28;1.70;;;8.20;44.80;;;;;;5135503;27;20019;-73
2022/04/12 00:03:31;;;;;;;1.80;1.50;;;8.20;44.90;;;;;;5154850;27;20465;-73
2022/04/12 00:05:57;;;;;;;3.13;1.45;;;8.10;45.30;;;;;;5136497;27;20026;-73
2022/04/12 00:08:24;;;;;;;1.92;1.40;;;8.10;45.10;;;;;;5118817;27;20089;-73
2022/04/12 00:10:51;;;;;;;2.20;1.50;;;8.10;45.00;;;;;;5125910;27;20045;-73
2022/04/12 00:13:18;;;;;;;4.28;1.40;;;8.00;45.10;;;;;;5133782;27;20026;-73
2022/04/12 00:15:45;;;;;;;1.85;0.95;;;8.00;45.40;;;;;;5133651;27;20111;-73
2022/04/12 00:20:57;;;;;;;2.33;1.00;;;8.00;45.20;;;;;;5134076;28;20026;-73
2022/04/12 00:23:24;;;;;;;3.78;0.90;;;8.00;45.00;;;;;;5134565;28;20062;-73
2022/04/12 00:25:49;;;;;;;1.70;1.15;;;7.90;45.10;;;;;;5105808;28;20031;-73
2022/04/12 00:28:16;;;;;;;2.45;0.98;;;7.90;45.00;;;;;;5110506;28;20027;-73
2022/04/12 00:30:43;;;;;;;3.70;1.10;;;7.90;45.20;;;;;;5113668;28;20028;-73
2022/04/12 00:33:09;;;;;;;2.75;1.40;;;7.90;45.30;;;;;;5095413;28;20024;-73
2022/04/12 00:35:34;;;;;;;3.60;1.70;;;7.80;45.50;;;;;;5099364;28;20447;-73
2022/04/12 00:38:01;;;;;;;2.78;1.67;;;7.80;45.70;;;;;;5140613;27;20030;-73
2022/04/12 00:40:27;;;;;;;2.33;1.42;;;7.80;45.70;;;;;;5135245;27;20413;-72
2022/04/12 00:42:53;;;;;;;3.53;1.40;;;7.80;45.70;;;;;;5106330;28;20106;-72
2022/04/12 00:45:20;;;;;;;1.50;0.90;;;7.80;45.60;;;;;;5098878;28;20066;-72
2022/04/12 00:47:46;;;;;;;2.15;1.10;;;7.80;45.60;;;;;;5101767;27;20463;-72
2022/04/12 00:50:13;;;;;;;2.15;0.93;;;7.70;45.70;;;;;;5137753;27;20063;-72
2022/04/12 00:52:48;;;;;;;1.83;1.15;;;7.70;45.60;;;;;;5137385;27;20057;-72
2022/04/12 00:55:15;;;;;;;7.43;1.75;;;7.70;45.60;;;;;;5137507;27;20048;-72
2022/04/12 00:57:42;;;;;;;2.03;1.10;;;7.70;45.80;;;;;;5137221;27;20034;-72
2022/04/12 01:00:10;;;;;;;1.85;0.98;;;7.70;46.00;;;;;;5114580;28;20814;-72
2022/04/12 01:02:36;;;;;;;1.23;0.85;;;7.60;45.80;;;;;;5103009;27;20031;-73
2022/04/12 01:05:04;;;;;;;2.92;1.08;;;7.60;46.00;;;;;;5137623;27;20031;-72
2022/04/12 01:07:30;;;;;;;2.83;1.05;;;7.60;46.10;;;;;;5112815;27;20508;-72
2022/04/12 01:09:58;;;;;;;3.83;1.23;;;7.60;46.10;;;;;;5118947;27;20034;-72
2022/04/12 01:12:26;;;;;;;2.55;1.10;;;7.50;46.00;;;;;;5136923;27;20109;-72
2022/04/12 01:14:52;;;;;;;2.33;1.05;;;7.50;46.10;;;;;;5137266;27;20031;-72
2022/04/12 01:17:18;;;;;;;2.78;1.10;;;7.50;46.10;;;;;;5137285;27;20067;-72
2022/04/12 01:19:44;;;;;;;2.35;1.10;;;7.50;47.00;;;;;;5129640;27;20106;-72
2022/04/12 01:22:17;;;;;;;1.98;1.27;;;7.40;46.30;;;;;;5136895;27;20483;-72
2022/04/12 01:24:44;;;;;;;1.93;0.90;;;7.40;46.70;;;;;;5116551;27;20027;-72
2022/04/12 01:27:10;;;;;;;2.13;1.33;;;7.40;46.40;;;;;;5118295;27;20100;-72
2022/04/12 01:29:36;;;;;;;2.90;1.27;;;7.40;46.50;;;;;;5118537;27;20057;-72
2022/04/12 01:32:07;;;;;;;1.70;1.10;;;7.30;46.80;;;;;;5112292;28;20028;-72
2022/04/12 01:34:34;;;;;;;3.05;1.50;;;7.30;47.00;;;;;;5117500;27;20035;-72
2022/04/12 01:37:02;;;;;;;2.00;1.40;;;7.30;47.00;;;;;;5135220;27;20028;-72
2022/04/12 01:39:29;;;;;;;2.33;1.20;;;7.30;47.00;;;;;;5134364;27;20044;-72
2022/04/12 01:41:55;;;;;;;1.88;1.05;;;7.30;47.20;;;;;;5118230;27;20027;-72
2022/04/12 01:44:20;;;;;;;2.58;1.40;;;7.20;47.30;;;;;;5118512;27;20109;-72
2022/04/12 01:46:46;;;;;;;6.03;1.20;;;7.20;47.50;;;;;;5136819;27;20102;-72
2022/04/12 01:49:12;;;;;;;3.08;1.40;;;7.20;47.60;;;;;;5134854;27;20035;-72
2022/04/12 01:51:38;;;;;;;7.05;1.52;;;7.20;47.60;;;;;;5136447;27;20023;-72
2022/04/12 01:54:04;;;;;;;3.50;1.52;;;7.20;47.80;;;;;;5136285;27;20101;-72
2022/04/12 01:56:31;;;;;;;3.22;1.40;;;7.10;48.00;;;;;;5136333;27;20064;-72
2022/04/12 01:58:58;;;;;;;2.08;1.30;;;7.10;48.10;;;;;;5117247;27;20035;-72
2022/04/12 02:01:24;;;;;;;3.45;1.38;;;7.10;48.40;;;;;;5136308;27;20027;-72
2022/04/12 02:03:50;;;;;;;2.42;1.30;;;7.10;49.00;;;;;;5136506;27;20019;-72
2022/04/12 02:06:15;;;;;;;2.78;1.83;;;7.10;49.10;;;;;;5135903;27;20394;-72
2022/04/12 02:08:41;;;;;;;2.95;2.17;;;7.10;49.10;;;;;;5136133;27;20416;-72
2022/04/12 02:11:07;;;;;;;2.15;1.45;;;7.10;49.00;;;;;;5117848;27;20024;-72
2022/04/12 02:13:33;;;;;;;2.55;1.55;;;7.00;48.80;;;;;;5115948;27;20038;-72
2022/04/12 02:15:59;;;;;;;2.42;1.42;;;7.00;48.80;;;;;;5097321;28;20459;-72
2022/04/12 02:18:24;;;;;;;3.05;1.58;;;7.00;48.80;;;;;;5115736;28;20027;-72
2022/04/12 02:20:50;;;;;;;2.50;1.27;;;7.00;48.70;;;;;;5106104;27;20027;-72
2022/04/12 02:23:16;;;;;;;4.78;1.60;;;7.00;49.00;;;;;;5135776;27;20027;-72
2022/04/12 02:25:41;;;;;;;3.92;1.70;;;7.00;49.10;;;;;;5136004;27;20038;-72
2022/04/12 02:28:07;;;;;;;1.65;1.05;;;7.00;49.20;;;;;;5135616;27;20029;-72
2022/04/12 02:30:33;;;;;;;2.92;1.50;;;7.00;49.20;;;;;;5135560;27;20027;-73
2022/04/12 02:32:59;;;;;;;2.08;0.90;;;6.90;49.00;;;;;;5117322;27;20039;-72
2022/04/12 02:35:25;;;;;;;1.80;1.10;;;6.90;48.90;;;;;;5116443;27;20046;-72
2022/04/12 02:37:51;;;;;;;2.60;1.20;;;6.90;48.80;;;;;;5134303;27;20035;-72
2022/04/12 02:40:20;;;;;;;2.38;1.40;;;6.80;48.90;;;;;;5109270;28;20082;-72
2022/04/12 02:42:45;;;;;;;2.85;1.45;;;6.90;49.00;;;;;;5122238;27;20390;-72
2022/04/12 02:45:12;;;;;;;2.83;1.58;;;6.80;49.10;;;;;;5135564;27;20028;-72
2022/04/12 02:47:37;;;;;;;2.95;1.30;;;6.80;49.10;;;;;;5135257;27;20156;-72
2022/04/12 02:50:04;;;;;;;3.05;1.40;;;6.80;49.20;;;;;;5116532;27;20105;-72
2022/04/12 02:52:29;;;;;;;2.95;1.30;;;6.80;49.20;;;;;;5108495;27;20100;-72
2022/04/12 02:54:55;;;;;;;2.50;1.40;;;6.80;49.20;;;;;;5135390;27;20092;-72
2022/04/12 02:57:21;;;;;;;4.57;1.50;;;6.80;49.20;;;;;;5116744;27;20027;-72
2022/04/12 02:59:47;;;;;;;1.58;1.00;;;6.80;49.30;;;;;;5116924;27;20019;-72
2022/04/12 03:02:12;;;;;;;2.78;1.30;;;6.80;49.20;;;;;;5116440;27;20023;-71
2022/04/12 03:04:40;;;;;;;2.58;1.40;;;6.80;49.20;;;;;;5134519;27;20038;-72
2022/04/12 03:07:06;;;;;;;2.20;1.50;;;6.70;49.10;;;;;;5116248;27;20023;-72
2022/04/12 03:09:32;;;;;;;3.30;1.50;;;6.80;49.40;;;;;;5135380;27;20027;-72
2022/04/12 03:11:58;;;;;;;1.90;1.30;;;6.80;49.50;;;;;;5134744;27;20027;-72
2022/04/12 03:14:24;;;;;;;2.00;1.30;;;6.80;49.50;;;;;;5116578;27;20032;-72
2022/04/12 03:16:50;;;;;;;4.32;1.60;;;6.80;49.40;;;;;;5116430;27;20031;-72
2022/04/12 03:19:15;;;;;;;2.88;1.60;;;6.80;49.40;;;;;;5134966;27;20023;-72
2022/04/12 03:21:42;;;;;;;8.07;2.72;;;6.80;49.50;;;;;;5134842;27;20023;-72
2022/04/12 03:24:08;;;;;;;4.43;1.75;;;6.70;49.60;;;;;;5116379;27;20027;-72
2022/04/12 03:26:35;;;;;;;7.00;2.78;;;6.70;49.40;;;;;;5134913;27;20027;-72
2022/04/12 03:29:01;;;;;;;4.55;1.73;;;6.70;49.40;;;;;;5134620;27;20419;-72
2022/04/12 03:31:26;;;;;;;2.40;1.20;;;6.70;49.40;;;;;;5134326;27;20023;-72
2022/04/12 03:33:52;;;;;;;2.63;1.48;;;6.70;49.60;;;;;;5115101;27;20719;-71
2022/04/12 03:36:18;;;;;;;4.57;1.40;;;6.70;49.80;;;;;;5132699;27;20450;-71
2022/04/12 03:38:49;;;;;;;3.75;1.50;;;6.70;49.70;;;;;;5134258;27;20023;-72
2022/04/12 03:41:19;;;;;;;2.08;1.17;;;6.70;49.80;;;;;;5113442;28;20162;-72
2022/04/12 03:43:45;;;;;;;4.00;1.55;;;6.70;49.70;;;;;;5117664;27;20068;-72
2022/04/12 03:46:11;;;;;;;3.80;1.50;;;6.70;49.80;;;;;;5110100;28;20015;-71
2022/04/12 03:48:38;;;;;;;3.28;1.33;;;6.70;49.70;;;;;;5105198;28;20439;-72
2022/04/12 03:51:05;;;;;;;2.15;1.35;;;6.60;49.70;;;;;;5113418;28;20469;-72
2022/04/12 03:53:31;;;;;;;2.92;1.40;;;6.60;49.60;;;;;;5113654;28;20374;-72
2022/04/12 03:55:57;;;;;;;3.88;1.73;;;6.70;49.70;;;;;;5095201;28;20615;-72
2022/04/12 03:58:22;;;;;;;2.17;1.23;;;6.60;49.70;;;;;;5105356;27;20059;-71
2022/04/12 04:00:49;;;;;;;4.13;1.50;;;6.60;49.70;;;;;;5133875;27;20049;-71
2022/04/12 04:03:18;;;;;;;1.38;1.00;;;6.70;49.70;;;;;;5115438;28;20031;-72
2022/04/12 04:05:44;;;;;;;3.42;1.80;;;6.60;49.70;;;;;;5116481;27;20085;-71
2022/04/12 04:08:11;;;;;;;6.63;1.75;;;6.60;49.70;;;;;;5133613;27;20026;-71
2022/04/12 04:10:37;;;;;;;3.97;1.65;;;6.60;49.80;;;;;;5115711;27;20378;-71
2022/04/12 04:13:08;;;;;;;5.70;1.60;;;6.60;49.90;;;;;;5114208;28;20028;-72
2022/04/12 04:15:41;;;;;;;3.38;1.52;;;6.60;49.90;;;;;;5108136;28;20114;-71
2022/04/12 04:18:08;;;;;;;3.67;2.00;;;6.60;50.20;;;;;;5113504;28;20077;-71
2022/04/12 04:20:34;;;;;;;4.55;2.08;;;6.70;50.30;;;;;;5115671;28;20435;-71
2022/04/12 04:23:00;;;;;;;3.70;1.70;;;6.70;50.40;;;;;;5129405;27;20098;-71
2022/04/12 04:25:26;;;;;;;3.65;1.90;;;6.60;50.60;;;;;;5122148;27;20054;-71
2022/04/12 04:27:52;;;;;;;3.50;1.35;;;6.70;50.70;;;;;;5139437;27;20071;-72
2022/04/12 04:30:19;;;;;;;6.07;2.20;;;6.70;50.70;;;;;;5101894;28;20020;-72
2022/04/12 04:32:46;;;;;;;6.32;1.70;;;6.70;50.80;;;;;;5101851;28;20147;-71
2022/04/12 04:35:12;;;;;;;3.20;1.50;;;6.70;50.90;;;;;;5101585;28;20030;-71
2022/04/12 04:37:50;;;;;;;5.28;1.98;;;6.70;50.80;;;;;;5119279;28;20043;-71
2022/04/12 04:40:18;;;;;;;3.88;1.77;;;6.70;50.90;;;;;;5102983;28;20086;-72
2022/04/12 04:42:45;;;;;;;3.70;1.70;;;6.70;50.70;;;;;;5121444;27;20339;-72
2022/04/12 04:45:14;;;;;;;2.67;1.40;;;6.70;50.60;;;;;;5134551;27;20031;-71
2022/04/12 04:47:54;;;;;;;3.03;1.48;;;6.70;50.50;;;;;;5140832;27;20027;-71
2022/04/12 04:50:21;;;;;;;4.05;1.92;;;6.80;50.50;;;;;;5140827;27;20023;-71
2022/04/12 04:52:50;;;;;;;4.93;1.60;;;6.80;50.40;;;;;;5140726;27;20011;-72
2022/04/12 04:55:17;;;;;;;3.45;1.58;;;6.80;50.40;;;;;;5121836;27;20031;-71
2022/04/12 04:57:44;;;;;;;7.55;2.38;;;6.90;50.50;;;;;;5121196;27;20382;-72
2022/04/12 05:00:18;;;;;;;6.80;2.33;;;6.90;50.70;;;;;;5140625;27;20023;-71
2022/04/12 05:02:44;;;;;;;;;;;7.00;51.00;;;;;;5141313;27;20019;-71
2022/04/12 05:05:11;;;;;;;19.83;2.40;;;7.00;50.50;;;;;;5121818;27;19910;-71
2022/04/12 05:07:40;;;;;;;8.30;2.47;;;7.10;50.90;;;;;;5140641;27;20034;-72
2022/04/12 05:10:07;;;;;;;6.15;2.63;;;7.20;51.10;;;;;;5121769;27;20024;-71
2022/04/12 05:12:33;;;;;;;6.25;2.05;;;7.20;51.30;;;;;;5116461;27;20076;-71
2022/04/12 05:14:59;;;;;;;5.80;2.58;;;7.30;51.10;;;;;;5140116;27;20031;-72
2022/04/12 05:17:29;;;;;;;9.32;3.42;;;7.30;51.00;;;;;;5121549;27;20052;-71
2022/04/12 05:19:58;;;;;;;7.80;2.30;;;7.40;51.20;;;;;;5140441;27;20114;-72
2022/04/12 05:22:24;;;;;;;8.48;2.47;;;7.50;51.20;;;;;;5140184;27;20042;-72
2022/04/12 05:24:50;;;;;;;7.10;2.30;;;7.50;51.10;;;;;;5140167;27;20394;-72
2022/04/12 05:27:16;;;;;;;7.13;2.90;;;7.60;51.20;;;;;;5132653;27;20398;-72
2022/04/12 05:29:43;;;;;;;10.30;2.78;;;7.70;51.40;;;;;;5121607;27;20069;-71
2022/04/12 05:32:09;;;;;;;5.72;2.63;;;7.70;51.90;;;;;;5137982;27;20066;-72
2022/04/12 05:34:39;;;;;;;11.52;4.57;;;7.80;51.10;;;;;;5136556;27;20474;-72
2022/04/12 05:37:05;;;;;;;9.93;3.00;;;7.90;51.00;;;;;;5136142;27;20019;-72
2022/04/12 05:39:31;;;;;;;4.38;2.60;;;7.90;51.00;;;;;;5136450;27;20103;-72
2022/04/12 05:42:00;;;;;;;5.63;2.85;;;8.00;51.00;;;;;;5137343;27;20529;-72
2022/04/12 05:44:32;;;;;;;6.75;3.30;;;8.10;51.00;;;;;;5130745;27;20032;-74
2022/04/12 05:46:59;;;;;;;10.10;3.65;;;8.10;51.10;;;;;;5084312;28;20463;-72
2022/04/12 05:49:25;;;;;;;8.23;2.75;;;8.20;51.20;;;;;;5097685;28;20031;-73
2022/04/12 05:51:50;;;;;;;6.95;2.85;;;8.30;50.50;;;;;;5116301;28;20024;-72
2022/04/12 05:54:16;;;;;;;5.43;2.40;;;8.40;49.60;;;;;;5118363;27;20027;-72
2022/04/12 05:56:45;;;;;;;8.40;2.25;;;8.40;48.90;;;;;;5118195;27;20043;-72
2022/04/12 05:59:11;;;;;;;8.27;2.10;;;8.40;48.70;;;;;;5117805;27;20046;-72
2022/04/12 06:01:38;;;;;;;4.38;2.00;;;8.50;48.60;;;;;;5089677;28;20027;-72
2022/04/12 06:04:05;;;;;;;5.85;2.80;;;8.60;48.50;;;;;;5099933;28;20379;-72
2022/04/12 06:06:32;;;;;;;8.65;2.53;;;8.70;48.40;;;;;;5118248;27;20046;-72
2022/04/12 06:09:01;;;;;;;4.65;2.20;;;8.70;48.30;;;;;;5123717;27;20064;-72
2022/04/12 06:11:27;;;;;;;3.47;1.83;;;8.80;48.50;;;;;;5124702;27;20043;-73
2022/04/12 06:13:53;;;;;;;3.78;1.83;;;8.90;48.40;;;;;;5135943;27;20489;-72
2022/04/12 06:16:19;;;;;;;3.13;2.05;;;9.00;48.40;;;;;;5115220;27;20039;-72
2022/04/12 06:18:45;;;;;;;9.70;3.50;;;9.00;48.20;;;;;;5135422;27;20123;-72
2022/04/12 06:21:11;;;;;;;6.65;2.80;;;9.10;47.80;;;;;;5113511;27;20518;-70
2022/04/12 06:23:37;;;;;;;6.30;3.60;;;9.20;47.40;;;;;;5115253;27;20023;-71
2022/04/12 06:26:03;;;;;;;7.50;3.50;;;9.30;47.40;;;;;;5112486;27;20027;-71
2022/04/12 06:28:30;;;;;;;6.50;3.30;;;9.40;47.30;;;;;;5103803;27;20536;-71
2022/04/12 06:30:58;;;;;;;7.25;3.83;;;9.50;47.20;;;;;;5128369;27;20316;-71
2022/04/12 06:33:24;;;;;;;6.07;4.03;;;9.60;47.10;;;;;;5101714;27;20034;-71
2022/04/12 06:35:50;;;;;;;11.40;4.70;;;9.70;46.80;;;;;;5115731;27;20031;-71
2022/04/12 06:38:16;;;;;;;8.10;3.65;;;9.80;46.60;;;;;;5101622;27;20507;-71
2022/04/12 06:40:44;;;;;;;16.17;3.65;;;9.90;46.60;;;;;;5109331;27;20051;-71
2022/04/12 06:43:10;;;;;;;8.43;4.28;;;10.00;46.70;;;;;;5103186;28;20031;-71
2022/04/12 06:45:37;;;;;;;8.63;3.90;;;10.10;46.00;;;;;;5104839;28;20118;-72
2022/04/12 06:48:03;;;;;;;15.73;5.53;;;10.20;45.80;;;;;;5113917;28;20028;-72
2022/04/12 06:50:29;;;;;;;15.15;5.72;;;10.30;45.70;;;;;;5116440;27;20118;-71
2022/04/12 06:52:56;;;;;;;10.52;5.07;;;10.40;45.50;;;;;;5135430;27;20098;-72
2022/04/12 06:55:22;;;;;;;12.35;5.63;;;10.50;45.40;;;;;;5116800;27;20443;-71
2022/04/12 06:57:49;;;;;;;12.38;4.85;;;10.60;45.30;;;;;;5117234;27;20382;-72
2022/04/12 07:00:17;;;;;;;7.93;3.90;;;10.70;44.90;;;;;;5116908;27;20023;-72
2022/04/12 07:02:43;;;;;;;11.88;4.53;;;10.80;45.00;;;;;;5135795;27;20030;-72
2022/04/12 07:05:09;;;;;;;9.55;4.18;;;11.00;44.70;;;;;;5117137;27;20066;-72
2022/04/12 07:07:39;;;;;;;9.07;4.07;;;11.10;44.60;;;;;;5135206;27;20034;-72
2022/04/12 07:10:07;;;;;;;10.18;4.07;;;11.20;44.40;;;;;;5134972;27;20033;-72
2022/04/12 07:12:33;;;;;;;11.95;4.13;;;11.30;44.10;;;;;;5135280;27;20025;-72
2022/04/12 07:14:59;;;;;;;8.25;3.97;;;11.30;43.90;;;;;;5135151;27;20031;-71
2022/04/12 07:17:25;;;;;;;10.60;4.85;;;11.40;43.80;;;;;;5116739;27;20030;-71
2022/04/12 07:19:51;;;;;;;10.48;4.53;;;11.50;43.20;;;;;;5134791;27;20035;-72
2022/04/12 07:22:16;;;;;;;12.35;4.95;;;11.50;43.30;;;;;;5134996;27;20019;-72
2022/04/12 07:24:42;;;;;;;8.57;4.00;;;11.60;43.20;;;;;;5134787;27;20034;-72
2022/04/12 07:27:08;;;;;;;11.18;4.50;;;11.70;43.10;;;;;;5116694;27;20044;-72
2022/04/12 07:29:34;;;;;;;11.90;4.25;;;11.70;43.00;;;;;;5134744;27;20362;-72
2022/04/12 07:32:00;;;;;;;13.23;5.38;;;11.80;42.80;;;;;;5134899;27;20061;-72
2022/04/12 07:34:26;;;;;;;8.98;4.40;;;11.80;42.30;;;;;;5116051;27;20434;-72
2022/04/12 07:36:55;;;;;;;14.85;5.30;;;11.90;42.30;;;;;;5127666;27;20039;-71
2022/04/12 07:39:22;;;;;;;14.75;5.07;;;12.00;42.20;;;;;;5105216;28;20380;-72
2022/04/12 07:41:49;;;;;;;13.73;6.53;;;12.00;42.10;;;;;;5071381;28;20036;-71
2022/04/12 07:44:16;;;;;;;9.65;4.75;;;12.10;41.90;;;;;;5071149;28;20103;-71
2022/04/12 07:46:42;;;;;;;14.55;4.45;;;12.10;41.80;;;;;;5089132;28;20116;-71
2022/04/12 07:49:08;;;;;;;12.15;4.03;;;12.20;42.20;;;;;;5071461;28;20445;-71
2022/04/12 07:51:34;;;;;;;14.68;5.13;;;12.30;42.10;;;;;;5089955;28;20028;-71
2022/04/12 07:54:01;;;;;;;9.93;4.88;;;12.40;41.90;;;;;;5082341;28;20012;-73
2022/04/12 07:56:27;;;;;;;9.40;4.55;;;12.50;41.90;;;;;;5089918;28;20043;-72
2022/04/12 07:58:53;;;;;;;8.27;4.10;;;12.60;41.60;;;;;;5090958;28;20035;-71
2022/04/12 08:01:19;;;;;;;8.23;4.18;;;12.60;41.70;;;;;;5082738;28;20430;-71
2022/04/12 08:03:46;;;;;;;7.72;3.70;;;12.70;41.40;;;;;;5106244;28;20512;-71
2022/04/12 08:06:12;;;;;;;7.88;4.07;;;12.80;41.10;;;;;;5091370;28;20032;-71
2022/04/12 08:08:38;;;;;;;10.60;4.03;;;12.90;41.10;;;;;;5092046;28;20020;-71
2022/04/12 08:11:05;;;;;;;16.42;4.65;;;13.00;40.80;;;;;;5087793;28;20405;-71
2022/04/12 08:13:31;;;;;;;10.93;4.65;;;13.10;40.80;;;;;;5093512;28;20125;-71
2022/04/12 08:15:57;;;;;;;11.90;4.68;;;13.20;40.50;;;;;;5090822;28;20032;-71
2022/04/12 08:18:24;;;;;;;9.40;4.38;;;13.20;40.70;;;;;;5091070;28;20077;-71
2022/04/12 08:20:50;;;;;;;10.82;4.15;;;13.40;40.60;;;;;;5088957;28;20110;-71
2022/04/12 08:23:21;;;;;;;12.00;4.40;;;13.50;40.30;;;;;;5091081;28;20047;-71
2022/04/12 08:25:47;;;;;;;17.63;6.38;;;13.60;39.90;;;;;;5106679;28;20384;-71
2022/04/12 08:28:13;;;;;;;27.60;8.48;;;13.60;39.80;;;;;;5095136;28;20027;-71
2022/04/12 08:30:39;;;;;;;20.40;7.53;;;13.70;39.00;;;;;;5110473;28;20111;-71
2022/04/12 08:33:05;;;;;;;15.65;6.65;;;13.70;39.00;;;;;;5085010;28;20039;-71
2022/04/12 08:35:31;;;;;;;12.35;5.43;;;13.80;38.70;;;;;;5081759;28;20111;-72
2022/04/12 08:37:56;;;;;;;11.43;4.93;;;13.80;38.80;;;;;;5086076;28;20500;-71
2022/04/12 08:40:22;;;;;;;15.07;4.90;;;13.90;39.10;;;;;;5108106;28;20048;-71
2022/04/12 08:42:48;;;;;;;10.25;4.07;;;14.00;38.80;;;;;;5094345;28;20079;-71
2022/04/12 08:45:14;;;;;;;14.73;4.30;;;14.00;39.10;;;;;;5093863;28;20122;-71
2022/04/12 08:47:43;;;;;;;16.33;5.43;;;14.10;39.10;;;;;;5094177;28;20502;-71
2022/04/12 08:50:10;;;;;;;17.67;7.13;;;14.30;38.90;;;;;;5094437;28;20445;-72
2022/04/12 08:52:37;;;;;;;18.45;6.38;;;14.30;38.00;;;;;;5113268;28;20394;-70
2022/04/12 08:55:04;;;;;;;17.42;5.38;;;14.40;37.80;;;;;;5094863;28;20031;-72
2022/04/12 08:57:30;;;;;;;13.52;5.85;;;14.40;38.10;;;;;;5113277;28;20023;-72
2022/04/12 08:59:56;;;;;;;13.57;5.45;;;14.50;38.00;;;;;;5092573;28;20150;-70
2022/04/12 09:02:23;;;;;;;10.10;4.85;;;14.60;38.20;;;;;;5090631;28;20513;-71
2022/04/12 09:04:49;;;;;;;23.52;5.35;;;14.70;37.80;;;;;;5089901;28;20024;-71
2022/04/12 09:07:15;;;;;;;10.48;4.82;;;14.80;37.30;;;;;;5115276;28;20084;-71
2022/04/12 09:09:42;;;;;;;13.10;4.65;;;14.80;37.30;;;;;;5095375;28;20468;-71
2022/04/12 09:12:13;;;;;;;8.63;4.65;;;14.90;37.10;;;;;;5097336;28;20028;-72
2022/04/12 09:14:55;;;;;;;13.43;4.63;;;14.90;37.10;;;;;;5081365;28;20475;-72
2022/04/12 09:17:36;;;;;;;14.05;4.70;;;15.00;37.30;;;;;;5078654;28;20123;-71
2022/04/12 09:20:11;;;;;;;14.52;4.55;;;15.00;37.20;;;;;;5113774;28;20028;-71
2022/04/12 09:22:37;;;;;;;15.13;5.22;;;15.10;37.40;;;;;;5116774;28;20016;-72
2022/04/12 09:25:05;;;;;;;11.68;4.88;;;15.20;37.70;;;;;;5114831;28;20359;-72
2022/04/12 09:27:33;;;;;;;9.07;4.22;;;15.30;37.70;;;;;;5077768;28;20437;-73
2022/04/12 09:30:01;;;;;;;10.90;6.55;;;15.40;37.30;;;;;;5086181;28;20088;-72
2022/04/12 09:32:29;;;;;;;10.27;4.80;;;15.50;37.10;;;;;;5114362;27;20077;-74
2022/04/12 09:34:57;;;;;;;9.15;4.20;;;15.50;36.80;;;;;;5095868;28;20372;-77
2022/04/12 09:37:34;;;;;;;13.73;5.45;;;15.60;37.00;;;;;;5115868;28;20095;-71
2022/04/12 09:40:00;;;;;;;48.10;6.78;;;15.70;37.00;;;;;;5112496;28;20062;-72
2022/04/12 09:42:37;;;;;;;16.85;6.53;;;15.80;36.80;;;;;;5098038;28;20015;-71
2022/04/12 09:45:05;;;;;;;10.43;5.38;;;15.80;37.20;;;;;;5098150;28;20062;-72
2022/04/12 09:47:32;;;;;;;9.48;4.82;;;15.90;37.40;;;;;;5097962;28;20077;-72
2022/04/12 09:49:59;;;;;;;12.85;4.88;;;16.00;37.30;;;;;;5098047;28;20114;-71
2022/04/12 09:52:25;;;;;;;10.10;5.60;;;16.10;37.20;;;;;;5098142;28;20061;-71
2022/04/12 09:54:51;;;;;;;11.63;4.70;;;16.20;37.00;;;;;;5097954;28;20031;-71
2022/04/12 09:57:18;;;;;;;9.73;5.45;;;16.30;37.00;;;;;;5116530;28;20056;-72
2022/04/12 09:59:45;;;;;;;17.05;5.38;;;16.50;36.60;;;;;;5097853;28;20058;-72
2022/04/12 10:02:11;;;;;;;10.05;4.10;;;16.50;36.20;;;;;;5116055;28;20027;-71
2022/04/12 10:04:38;;;;;;;9.00;5.00;;;16.60;36.30;;;;;;5097859;28;20066;-73
2022/04/12 10:07:14;;;;;;;14.48;5.25;;;16.70;36.40;;;;;;5097886;28;20034;-73
2022/04/12 10:09:43;;;;;;;9.60;4.70;;;16.70;36.30;;;;;;5097944;28;20047;-73
2022/04/12 10:12:09;;;;;;;7.28;4.53;;;16.80;36.20;;;;;;5115749;28;20156;-72
2022/04/12 10:14:36;;;;;;;9.75;4.43;;;16.90;36.30;;;;;;5097593;28;20031;-72
2022/04/12 10:17:02;;;;;;;9.25;4.70;;;16.90;36.30;;;;;;5115926;28;20032;-73
2022/04/12 10:19:29;;;;;;;9.13;4.38;;;17.00;36.40;;;;;;5115004;28;20024;-72
2022/04/12 10:21:55;;;;;;;7.60;5.05;;;17.00;36.50;;;;;;5115503;27;20073;-72
2022/04/12 10:24:22;;;;;;;12.48;5.43;;;17.00;36.20;;;;;;5097525;28;20444;-71
2022/04/12 10:26:50;;;;;;;8.73;4.90;;;17.10;36.30;;;;;;5101129;27;20023;-71
2022/04/12 10:29:16;;;;;;;8.55;5.68;;;17.10;36.00;;;;;;5117804;27;20134;-71
2022/04/12 10:32:12;;;;;;;9.55;5.80;;;17.20;35.80;;;;;;5117664;27;20058;-73
2022/04/12 10:34:59;;;;;;;12.45;5.07;;;17.20;36.20;;;;;;5052262;28;20044;-72
2022/04/12 10:37:25;;;;;;;7.28;5.47;;;17.30;36.30;;;;;;5035575;28;20040;-71
2022/04/12 10:40:00;;;;;;;11.52;5.95;;;17.40;36.30;;;;;;5057593;28;20131;-71
2022/04/12 10:42:28;;;;;;;9.68;5.72;;;17.50;36.10;;;;;;5055876;28;20419;-71
2022/04/12 10:44:56;;;;;;;9.13;5.50;;;17.50;35.80;;;;;;5055458;28;20622;-71
2022/04/12 10:47:31;;;;;;;15.27;5.82;;;17.60;35.90;;;;;;5055525;28;20032;-71
2022/04/12 10:50:05;;;;;;;9.55;5.50;;;17.70;35.70;;;;;;5055654;28;20388;-72
2022/04/12 10:52:49;;;;;;;9.40;5.60;;;17.80;35.60;;;;;;5072090;28;20086;-72
2022/04/12 10:55:22;;;;;;;8.27;4.78;;;17.90;35.30;;;;;;5055316;28;20050;-72
2022/04/12 10:57:49;;;;;;;10.07;5.07;;;18.00;34.80;;;;;;5072102;28;20037;-72
2022/04/12 11:00:22;;;;;;;7.85;5.32;;;18.20;35.20;;;;;;5055204;28;20024;-72
2022/04/12 11:03:00;;;;;;;9.77;6.15;;;18.40;34.80;;;;;;5054997;28;20024;-72
2022/04/12 11:05:42;;;;;;;9.43;6.00;;;18.50;34.80;;;;;;5054993;28;20040;-73
2022/04/12 11:08:14;;;;;;;12.57;6.97;;;18.70;34.50;;;;;;5071867;28;20389;-72
2022/04/12 11:10:54;;;;;;;12.52;6.75;;;18.90;34.80;;;;;;5069799;28;20441;-73
2022/04/12 11:13:21;;;;;;;16.23;5.75;;;19.00;33.00;;;;;;5113568;28;20462;-73
2022/04/12 11:15:55;;;;;;;10.68;5.38;;;19.20;32.30;;;;;;5096217;28;20024;-73
2022/04/12 11:18:21;;;;;;;10.55;5.20;;;19.30;32.70;;;;;;5095991;28;20185;-73
2022/04/12 11:21:13;;;;;;;7.75;5.07;;;19.40;32.10;;;;;;5096414;28;20118;-73
2022/04/12 11:24:01;;;;;;;8.95;5.53;;;19.40;32.50;;;;;;5092973;28;20049;-73
2022/04/12 11:27:03;;;;;;;9.80;5.30;;;19.50;32.20;;;;;;5092785;28;20119;-73
2022/04/12 11:29:29;;;;;;;13.35;5.55;;;19.60;32.40;;;;;;5079695;28;20036;-73
2022/04/12 11:31:56;;;;;;;9.05;6.18;;;19.60;31.60;;;;;;5093483;28;20028;-71
2022/04/12 11:34:23;;;;;;;10.02;5.13;;;19.60;31.10;;;;;;5074987;28;20032;-71
2022/04/12 11:36:52;;;;;;;7.10;4.72;;;19.70;31.10;;;;;;5093840;28;20111;-72
2022/04/12 11:39:19;;;;;;;12.98;5.15;;;19.70;31.60;;;;;;5075105;28;20048;-71
2022/04/12 11:41:45;;;;;;;8.60;4.75;;;19.70;31.50;;;;;;5093511;28;20028;-71
2022/04/12 11:44:11;;;;;;;5.57;4.15;;;19.80;31.50;;;;;;5092491;28;20016;-72
2022/04/12 11:46:37;;;;;;;13.52;5.05;;;19.80;31.50;;;;;;5075313;28;20111;-72
2022/04/12 11:49:13;;;;;;;8.13;4.70;;;19.90;31.30;;;;;;5092837;28;20032;-72
2022/04/12 11:51:42;;;;;;;10.20;5.55;;;19.90;31.40;;;;;;5093770;28;20024;-71
2022/04/12 11:54:28;;;;;;;8.27;4.78;;;20.00;31.00;;;;;;5092394;28;20046;-71
2022/04/12 11:57:07;;;;;;;7.10;4.38;;;20.00;30.80;;;;;;5093640;28;20025;-72
2022/04/12 11:59:44;;;;;;;7.40;4.07;;;20.10;30.90;;;;;;5092391;28;20043;-73
2022/04/12 12:02:10;;;;;;;8.07;4.70;;;20.10;30.50;;;;;;5092414;28;20110;-71
2022/04/12 12:04:37;;;;;;;8.57;5.22;;;20.20;30.10;;;;;;5093558;28;20091;-71
2022/04/12 12:07:06;;;;;;;6.30;4.18;;;20.20;29.80;;;;;;5091878;28;20024;-72
2022/04/12 12:09:34;;;;;;;12.05;5.60;;;20.30;30.20;;;;;;5093569;28;20038;-73
2022/04/12 12:12:08;;;;;;;8.07;4.38;;;20.30;30.20;;;;;;5075396;28;20035;-73
2022/04/12 12:14:35;;;;;;;;;;;20.40;30.10;;;;;;5092531;28;20493;-73
2022/04/12 12:17:06;;;;;;;6.72;4.03;;;20.50;31.10;;;;;;5075394;28;19908;-74
2022/04/12 12:19:33;;;;;;;9.25;4.55;;;20.50;30.10;;;;;;5092159;28;20028;-73
2022/04/12 12:22:02;;;;;;;9.18;4.28;;;20.50;29.70;;;;;;5095613;28;20074;-73
2022/04/12 12:24:28;;;;;;;10.52;3.92;;;20.60;29.80;;;;;;5095133;28;20023;-72
2022/04/12 12:26:57;;;;;;;6.30;4.00;;;20.60;29.40;;;;;;5095143;28;20024;-72
2022/04/12 12:29:26;;;;;;;7.05;4.20;;;20.70;29.50;;;;;;5095232;28;20503;-72
2022/04/12 12:31:58;;;;;;;6.53;4.03;;;20.70;29.00;;;;;;5095493;28;20032;-72
2022/04/12 12:34:33;;;;;;;7.05;4.43;;;20.70;29.40;;;;;;5095063;28;20020;-72
2022/04/12 12:37:06;;;;;;;6.45;3.45;;;20.70;29.50;;;;;;5095209;28;20504;-72
2022/04/12 12:39:38;;;;;;;8.40;4.17;;;20.80;29.20;;;;;;5117648;27;20054;-72
2022/04/12 12:42:08;;;;;;;6.60;4.07;;;20.90;29.00;;;;;;5135150;27;20034;-72
2022/04/12 12:44:36;;;;;;;7.32;4.00;;;20.90;29.10;;;;;;5119821;27;20054;-72
2022/04/12 12:47:04;;;;;;;9.35;4.47;;;20.90;29.30;;;;;;5119704;27;20031;-72
2022/04/12 12:49:41;;;;;;;7.28;4.28;;;21.00;28.70;;;;;;5119570;27;20023;-72
2022/04/12 12:52:10;;;;;;;7.10;4.47;;;21.10;28.90;;;;;;5137625;27;20076;-72
2022/04/12 12:54:36;;;;;;;7.38;4.18;;;21.10;28.60;;;;;;5119423;27;20038;-72
2022/04/12 12:57:03;;;;;;;5.65;3.90;;;21.10;28.50;;;;;;5119202;27;20034;-72